PWSweather.com
Personal Weather Stations
Station Observations
AC5JC
Greenleaf Peninsula, Waco, Waco, TX 76710

Greenleaf Peninsula, WacoWaco, TX 76710

Lat: 31.565, Lon: -97.198

Elevation: 570

Station Type: Ambient WS-1400IP

http://ac5jc.dyndns.org

High Low Average
Temperature 71.5°F21.9°C 55.2°F12.9°C 61.8°F16.6°C
Dew Point 65.8°F18.8°C 47.3°F8.5°C 56.9°F13.8°C
Winds 9.8 mph 15.8 kmh Calm Calm 4.0 mph S6.4 kmh S
Wind Gusts 22.4 mph36.0 kmh -- 9.0 mph14.5 kmh
Humidity 96% 69% 84%
Pressure 29.46 in997.6 mb 29.23 in989.8 mb -
Precipitation 0.24 in6.1 mm - -
Hour Temp Dew Point Humidity Winds Wind Gusts Pressure Precip Precip Rate Daily Precip Total
12:00 AM 58.1°F14.5°C 46.0°F7.8°C 64% 5.0 mph SE8.0 kmh SE 12.3 mph19.8 kmh 29.46 in997.6 mb 0.00 in0.0 mm 0.00 in0.0 mm 0.00 in0.0 mm
12:05 AM 58.1°F14.5°C 46.0°F7.8°C 64% 4.3 mph SE6.9 kmh SE 7.4 mph11.9 kmh 29.47 in998.0 mb 0.00 in0.0 mm 0.00 in0.0 mm 0.00 in0.0 mm
12:10 AM 58.1°F14.5°C 46.0°F7.8°C 64% 3.7 mph SE6.0 kmh SE 9.8 mph15.8 kmh 29.46 in997.6 mb 0.00 in0.0 mm 0.00 in0.0 mm 0.00 in0.0 mm
12:15 AM 58.1°F14.5°C 46.4°F8.0°C 65% 5.2 mph SE8.4 kmh SE 9.8 mph15.8 kmh 29.47 in998.0 mb 0.00 in0.0 mm 0.00 in0.0 mm 0.00 in0.0 mm
12:20 AM 58.1°F14.5°C 46.4°F8.0°C 65% 7.0 mph SE11.3 kmh SE 15.0 mph24.1 kmh 29.46 in997.6 mb 0.00 in0.0 mm 0.00 in0.0 mm 0.00 in0.0 mm
12:25 AM 58.1°F14.5°C 46.4°F8.0°C 65% 4.4 mph SE7.1 kmh SE 9.8 mph15.8 kmh 29.46 in997.6 mb 0.00 in0.0 mm 0.00 in0.0 mm 0.00 in0.0 mm
12:30 AM 58.1°F14.5°C 46.4°F8.0°C 65% 4.0 mph ESE6.4 kmh ESE 7.4 mph11.9 kmh 29.46 in997.6 mb 0.00 in0.0 mm 0.00 in0.0 mm 0.00 in0.0 mm
12:35 AM 58.1°F14.5°C 46.6°F8.1°C 65% 5.9 mph SE9.5 kmh SE 17.4 mph28.0 kmh 29.45 in997.3 mb 0.00 in0.0 mm 0.00 in0.0 mm 0.00 in0.0 mm
12:40 AM 58.0°F14.4°C 46.9°F8.3°C 66% 6.8 mph E10.9 kmh E 17.4 mph28.0 kmh 29.45 in997.3 mb 0.00 in0.0 mm 0.00 in0.0 mm 0.00 in0.0 mm
12:45 AM 57.8°F14.3°C 47.0°F8.3°C 67% 7.2 mph ESE11.6 kmh ESE 17.4 mph28.0 kmh 29.45 in997.3 mb 0.00 in0.0 mm 0.00 in0.0 mm 0.00 in0.0 mm
12:50 AM 57.7°F14.3°C 47.2°F8.4°C 68% 6.0 mph SE9.7 kmh SE 15.0 mph24.1 kmh 29.46 in997.6 mb 0.00 in0.0 mm 0.00 in0.0 mm 0.00 in0.0 mm
12:55 AM 57.5°F14.2°C 47.3°F8.5°C 69% 6.2 mph ESE10.0 kmh ESE 12.3 mph19.8 kmh 29.45 in997.3 mb 0.00 in0.0 mm 0.00 in0.0 mm 0.00 in0.0 mm
01:00 AM 57.3°F14.1°C 47.3°F8.5°C 69% 6.6 mph ESE10.6 kmh ESE 12.3 mph19.8 kmh 29.45 in997.3 mb 0.00 in0.0 mm 0.00 in0.0 mm 0.00 in0.0 mm
01:05 AM 57.1°F13.9°C 47.4°F8.6°C 70% 6.8 mph SE10.9 kmh SE 15.0 mph24.1 kmh 29.46 in997.6 mb 0.00 in0.0 mm 0.00 in0.0 mm 0.00 in0.0 mm
01:10 AM 56.9°F13.8°C 47.3°F8.5°C 70% 5.4 mph ESE8.7 kmh ESE 19.9 mph32.0 kmh 29.45 in997.3 mb 0.00 in0.0 mm 0.00 in0.0 mm 0.00 in0.0 mm
01:15 AM 56.8°F13.8°C 47.5°F8.6°C 71% 7.4 mph ESE11.9 kmh ESE 15.0 mph24.1 kmh 29.45 in997.3 mb 0.00 in0.0 mm 0.00 in0.0 mm 0.00 in0.0 mm
01:20 AM 56.8°F13.8°C 47.5°F8.6°C 71% 7.0 mph ENE11.3 kmh ENE 12.3 mph19.8 kmh 29.44 in997.0 mb 0.00 in0.0 mm 0.00 in0.0 mm 0.00 in0.0 mm
01:25 AM 56.7°F13.7°C 47.5°F8.6°C 71% 6.9 mph SE11.1 kmh SE 12.3 mph19.8 kmh 29.44 in997.0 mb 0.00 in0.0 mm 0.00 in0.0 mm 0.00 in0.0 mm
01:30 AM 56.7°F13.7°C 47.8°F8.8°C 72% 7.6 mph ESE12.2 kmh ESE 17.4 mph28.0 kmh 29.44 in997.0 mb 0.00 in0.0 mm 0.00 in0.0 mm 0.00 in0.0 mm
01:35 AM 56.5°F13.6°C 47.6°F8.7°C 72% 6.4 mph SE10.3 kmh SE 12.3 mph19.8 kmh 29.44 in997.0 mb 0.00 in0.0 mm 0.00 in0.0 mm 0.00 in0.0 mm
01:40 AM 56.4°F13.6°C 47.5°F8.6°C 72% 3.9 mph SE6.3 kmh SE 9.8 mph15.8 kmh 29.44 in997.0 mb 0.00 in0.0 mm 0.00 in0.0 mm 0.00 in0.0 mm
01:45 AM 56.3°F13.5°C 47.5°F8.6°C 72% 6.8 mph SE10.9 kmh SE 12.3 mph19.8 kmh 29.44 in997.0 mb 0.00 in0.0 mm 0.00 in0.0 mm 0.00 in0.0 mm
01:50 AM 56.1°F13.4°C 47.6°F8.7°C 73% 6.0 mph SE9.7 kmh SE 12.3 mph19.8 kmh 29.43 in996.6 mb 0.00 in0.0 mm 0.00 in0.0 mm 0.00 in0.0 mm
01:55 AM 56.1°F13.4°C 47.6°F8.7°C 73% 5.9 mph ESE9.5 kmh ESE 12.3 mph19.8 kmh 29.43 in996.6 mb 0.00 in0.0 mm 0.00 in0.0 mm 0.00 in0.0 mm
02:00 AM 55.9°F13.3°C 47.4°F8.6°C 73% 9.7 mph E15.6 kmh E 15.0 mph24.1 kmh 29.43 in996.6 mb 0.00 in0.0 mm 0.00 in0.0 mm 0.00 in0.0 mm
02:05 AM 55.9°F13.3°C 47.3°F8.5°C 73% 6.1 mph E9.8 kmh E 15.0 mph24.1 kmh 29.43 in996.6 mb 0.00 in0.0 mm 0.00 in0.0 mm 0.00 in0.0 mm
02:10 AM 55.8°F13.2°C 47.5°F8.6°C 74% 4.8 mph ESE7.7 kmh ESE 9.8 mph15.8 kmh 29.43 in996.6 mb 0.00 in0.0 mm 0.00 in0.0 mm 0.00 in0.0 mm
02:15 AM 55.7°F13.2°C 47.6°F8.7°C 74% 6.2 mph ESE10.0 kmh ESE 9.8 mph15.8 kmh 29.43 in996.6 mb 0.00 in0.0 mm 0.00 in0.0 mm 0.00 in0.0 mm
02:20 AM 55.6°F13.1°C 47.4°F8.6°C 74% 4.8 mph SE7.7 kmh SE 9.8 mph15.8 kmh 29.42 in996.3 mb 0.00 in0.0 mm 0.00 in0.0 mm 0.00 in0.0 mm
02:25 AM 55.6°F13.1°C 47.5°F8.6°C 74% 5.0 mph SE8.0 kmh SE 12.3 mph19.8 kmh 29.43 in996.6 mb 0.00 in0.0 mm 0.00 in0.0 mm 0.00 in0.0 mm
02:30 AM 55.5°F13.1°C 47.7°F8.7°C 75% 4.3 mph SE6.9 kmh SE 7.4 mph11.9 kmh 29.42 in996.3 mb 0.00 in0.0 mm 0.00 in0.0 mm 0.00 in0.0 mm
02:35 AM 55.4°F13.0°C 47.6°F8.7°C 75% 5.1 mph E8.2 kmh E 12.3 mph19.8 kmh 29.42 in996.3 mb 0.00 in0.0 mm 0.00 in0.0 mm 0.00 in0.0 mm
02:40 AM 55.4°F13.0°C 47.7°F8.7°C 75% 4.5 mph E7.2 kmh E 9.8 mph15.8 kmh 29.42 in996.3 mb 0.00 in0.0 mm 0.00 in0.0 mm 0.00 in0.0 mm
02:45 AM 55.4°F13.0°C 48.0°F8.9°C 76% 6.3 mph ESE10.1 kmh ESE 9.8 mph15.8 kmh 29.43 in996.6 mb 0.00 in0.0 mm 0.00 in0.0 mm 0.00 in0.0 mm
02:50 AM 55.2°F12.9°C 47.9°F8.8°C 76% 4.5 mph ESE7.2 kmh ESE 9.8 mph15.8 kmh 29.43 in996.6 mb 0.00 in0.0 mm 0.00 in0.0 mm 0.00 in0.0 mm
02:55 AM 55.2°F12.9°C 48.1°F8.9°C 77% 5.4 mph E8.7 kmh E 9.8 mph15.8 kmh 29.43 in996.6 mb 0.00 in0.0 mm 0.00 in0.0 mm 0.00 in0.0 mm
03:00 AM 55.2°F12.9°C 48.3°F9.1°C 78% 2.2 mph E3.5 kmh E 4.9 mph7.9 kmh 29.43 in996.6 mb 0.00 in0.0 mm 0.00 in0.0 mm 0.00 in0.0 mm
03:05 AM 55.2°F12.9°C 48.3°F9.1°C 78% 2.7 mph ESE4.3 kmh ESE 7.4 mph11.9 kmh 29.43 in996.6 mb 0.00 in0.0 mm 0.00 in0.0 mm 0.00 in0.0 mm
03:10 AM 55.2°F12.9°C 48.1°F8.9°C 77% 3.3 mph E5.3 kmh E 4.9 mph7.9 kmh 29.43 in996.6 mb 0.00 in0.0 mm 0.00 in0.0 mm 0.00 in0.0 mm
03:15 AM 55.2°F12.9°C 48.1°F8.9°C 77% 2.4 mph SE3.9 kmh SE 7.4 mph11.9 kmh 29.44 in997.0 mb 0.00 in0.0 mm 0.00 in0.0 mm 0.00 in0.0 mm
03:20 AM 55.2°F12.9°C 47.9°F8.8°C 76% 2.5 mph E4.0 kmh E 7.4 mph11.9 kmh 29.44 in997.0 mb 0.00 in0.0 mm 0.00 in0.0 mm 0.00 in0.0 mm
03:25 AM 55.3°F12.9°C 47.8°F8.8°C 76% 1.8 mph E2.9 kmh E 4.9 mph7.9 kmh 29.44 in997.0 mb 0.00 in0.0 mm 0.00 in0.0 mm 0.00 in0.0 mm
03:30 AM 55.4°F13.0°C 48.0°F8.9°C 76% 2.2 mph NE3.5 kmh NE 4.9 mph7.9 kmh 29.44 in997.0 mb 0.00 in0.0 mm 0.00 in0.0 mm 0.00 in0.0 mm
03:35 AM 55.6°F13.1°C 48.2°F9.0°C 76% 0.3 mph ESE0.5 kmh ESE 2.5 mph4.0 kmh 29.44 in997.0 mb 0.00 in0.0 mm 0.00 in0.0 mm 0.00 in0.0 mm
03:40 AM 55.7°F13.2°C 48.3°F9.1°C 76% 0.3 mph NE0.5 kmh NE 2.5 mph4.0 kmh 29.44 in997.0 mb 0.00 in0.0 mm 0.00 in0.0 mm 0.00 in0.0 mm
03:45 AM 55.9°F13.3°C 48.4°F9.1°C 76% 0.6 mph NNE1.0 kmh NNE 2.5 mph4.0 kmh 29.44 in997.0 mb 0.00 in0.0 mm 0.00 in0.0 mm 0.00 in0.0 mm
03:50 AM 56.0°F13.3°C 48.5°F9.2°C 76% 1.4 mph NE2.3 kmh NE 4.9 mph7.9 kmh 29.43 in996.6 mb 0.00 in0.0 mm 0.00 in0.0 mm 0.00 in0.0 mm
03:55 AM 56.1°F13.4°C 48.7°F9.3°C 76% 2.4 mph NE3.9 kmh NE 4.9 mph7.9 kmh 29.43 in996.6 mb 0.00 in0.0 mm 0.00 in0.0 mm 0.00 in0.0 mm
04:00 AM 56.3°F13.5°C 48.8°F9.3°C 76% 1.8 mph NE2.9 kmh NE 4.9 mph7.9 kmh 29.44 in997.0 mb 0.00 in0.0 mm 0.00 in0.0 mm 0.00 in0.0 mm
04:05 AM 56.4°F13.6°C 48.9°F9.4°C 76% 2.0 mph NE3.2 kmh NE 7.4 mph11.9 kmh 29.43 in996.6 mb 0.00 in0.0 mm 0.00 in0.0 mm 0.00 in0.0 mm
04:10 AM 56.5°F13.6°C 49.0°F9.4°C 76% 1.2 mph NE1.9 kmh NE 2.5 mph4.0 kmh 29.44 in997.0 mb 0.00 in0.0 mm 0.00 in0.0 mm 0.00 in0.0 mm
04:15 AM 56.5°F13.6°C 49.0°F9.4°C 76% 0.3 mph NE0.5 kmh NE 2.5 mph4.0 kmh 29.44 in997.0 mb 0.00 in0.0 mm 0.00 in0.0 mm 0.00 in0.0 mm
04:20 AM 56.5°F13.6°C 49.0°F9.4°C 76% 1.9 mph ENE3.1 kmh ENE 7.4 mph11.9 kmh 29.44 in997.0 mb 0.00 in0.0 mm 0.00 in0.0 mm 0.00 in0.0 mm
04:25 AM 56.5°F13.6°C 49.0°F9.4°C 76% 2.6 mph NE4.2 kmh NE 7.4 mph11.9 kmh 29.44 in997.0 mb 0.00 in0.0 mm 0.00 in0.0 mm 0.00 in0.0 mm
04:30 AM 56.3°F13.5°C 49.2°F9.6°C 77% 1.8 mph ENE2.9 kmh ENE 4.9 mph7.9 kmh 29.43 in996.6 mb 0.00 in0.0 mm 0.00 in0.0 mm 0.00 in0.0 mm
04:35 AM 56.2°F13.4°C 49.3°F9.6°C 78% 1.6 mph NNE2.6 kmh NNE 4.9 mph7.9 kmh 29.43 in996.6 mb 0.00 in0.0 mm 0.00 in0.0 mm 0.00 in0.0 mm
04:40 AM 56.1°F13.4°C 49.3°F9.6°C 78% 1.2 mph N1.9 kmh N 4.9 mph7.9 kmh 29.43 in996.6 mb 0.00 in0.0 mm 0.00 in0.0 mm 0.00 in0.0 mm
04:45 AM 56.0°F13.3°C 49.2°F9.6°C 78% 2.3 mph ENE3.7 kmh ENE 4.9 mph7.9 kmh 29.43 in996.6 mb 0.00 in0.0 mm 0.00 in0.0 mm 0.00 in0.0 mm
04:50 AM 55.9°F13.3°C 49.5°F9.7°C 79% 0.8 mph E1.3 kmh E 4.9 mph7.9 kmh 29.43 in996.6 mb 0.00 in0.0 mm 0.00 in0.0 mm 0.00 in0.0 mm
04:55 AM 55.9°F13.3°C 49.5°F9.7°C 79% 2.6 mph ENE4.2 kmh ENE 4.9 mph7.9 kmh 29.43 in996.6 mb 0.00 in0.0 mm 0.00 in0.0 mm 0.00 in0.0 mm
05:00 AM 56.0°F13.3°C 49.5°F9.7°C 79% 1.1 mph NE1.8 kmh NE 4.9 mph7.9 kmh 29.43 in996.6 mb 0.00 in0.0 mm 0.00 in0.0 mm 0.00 in0.0 mm
05:05 AM 56.1°F13.4°C 49.8°F9.9°C 79% Calm Calm -- 29.43 in996.6 mb 0.00 in0.0 mm 0.00 in0.0 mm 0.00 in0.0 mm
05:10 AM 56.1°F13.4°C 50.0°F10.0°C 80% 0.5 mph NE0.8 kmh NE 2.5 mph4.0 kmh 29.43 in996.6 mb 0.00 in0.0 mm 0.00 in0.0 mm 0.00 in0.0 mm
05:15 AM 56.3°F13.5°C 50.2°F10.1°C 80% 1.1 mph E1.8 kmh E 2.5 mph4.0 kmh 29.42 in996.3 mb 0.00 in0.0 mm 0.00 in0.0 mm 0.00 in0.0 mm
05:20 AM 56.3°F13.5°C 50.5°F10.3°C 81% 1.7 mph E2.7 kmh E 4.9 mph7.9 kmh 29.42 in996.3 mb 0.00 in0.0 mm 0.00 in0.0 mm 0.00 in0.0 mm
05:25 AM 56.3°F13.5°C 50.5°F10.3°C 81% 0.6 mph NNE1.0 kmh NNE 2.5 mph4.0 kmh 29.42 in996.3 mb 0.00 in0.0 mm 0.00 in0.0 mm 0.00 in0.0 mm
05:30 AM 56.5°F13.6°C 51.0°F10.6°C 82% 1.8 mph NNE2.9 kmh NNE 4.9 mph7.9 kmh 29.42 in996.3 mb 0.00 in0.0 mm 0.00 in0.0 mm 0.00 in0.0 mm
05:35 AM 56.5°F13.6°C 51.1°F10.6°C 82% 0.8 mph N1.3 kmh N 2.5 mph4.0 kmh 29.42 in996.3 mb 0.00 in0.0 mm 0.00 in0.0 mm 0.00 in0.0 mm
05:40 AM 56.5°F13.6°C 51.1°F10.6°C 82% 1.1 mph ENE1.8 kmh ENE 2.5 mph4.0 kmh 29.42 in996.3 mb 0.00 in0.0 mm 0.00 in0.0 mm 0.00 in0.0 mm
05:45 AM 56.5°F13.6°C 51.1°F10.6°C 82% 0.4 mph NE0.6 kmh NE 2.5 mph4.0 kmh 29.42 in996.3 mb 0.00 in0.0 mm 0.00 in0.0 mm 0.00 in0.0 mm
05:50 AM 56.5°F13.6°C 51.3°F10.7°C 83% 0.6 mph NE1.0 kmh NE 2.5 mph4.0 kmh 29.42 in996.3 mb 0.00 in0.0 mm 0.00 in0.0 mm 0.00 in0.0 mm
05:55 AM 56.5°F13.6°C 51.4°F10.8°C 83% 0.9 mph ENE1.4 kmh ENE 4.9 mph7.9 kmh 29.42 in996.3 mb 0.00 in0.0 mm 0.00 in0.0 mm 0.00 in0.0 mm
06:00 AM 56.5°F13.6°C 51.4°F10.8°C 83% 1.4 mph E2.3 kmh E 4.9 mph7.9 kmh 29.42 in996.3 mb 0.00 in0.0 mm 0.00 in0.0 mm 0.00 in0.0 mm
06:05 AM 56.5°F13.6°C 51.4°F10.8°C 83% 1.0 mph ENE1.6 kmh ENE 4.9 mph7.9 kmh 29.42 in996.3 mb 0.00 in0.0 mm 0.00 in0.0 mm 0.00 in0.0 mm
06:10 AM 56.3°F13.5°C 51.4°F10.8°C 84% 0.8 mph E1.3 kmh E 2.5 mph4.0 kmh 29.42 in996.3 mb 0.00 in0.0 mm 0.00 in0.0 mm 0.00 in0.0 mm
06:15 AM 56.3°F13.5°C 51.5°F10.8°C 84% 0.9 mph E1.4 kmh E 2.5 mph4.0 kmh 29.42 in996.3 mb 0.00 in0.0 mm 0.00 in0.0 mm 0.00 in0.0 mm
06:20 AM 56.3°F13.5°C 51.5°F10.8°C 84% 0.9 mph E1.4 kmh E 4.9 mph7.9 kmh 29.41 in995.9 mb 0.00 in0.0 mm 0.00 in0.0 mm 0.00 in0.0 mm
06:25 AM 56.3°F13.5°C 51.5°F10.8°C 84% 1.3 mph ESE2.1 kmh ESE 4.9 mph7.9 kmh 29.42 in996.3 mb 0.00 in0.0 mm 0.00 in0.0 mm 0.00 in0.0 mm
06:30 AM 56.2°F13.4°C 51.4°F10.8°C 84% 1.9 mph E3.1 kmh E 7.4 mph11.9 kmh 29.41 in995.9 mb 0.00 in0.0 mm 0.00 in0.0 mm 0.00 in0.0 mm
06:35 AM 56.2°F13.4°C 51.6°F10.9°C 85% 2.6 mph E4.2 kmh E 4.9 mph7.9 kmh 29.41 in995.9 mb 0.00 in0.0 mm 0.00 in0.0 mm 0.00 in0.0 mm
06:40 AM 56.3°F13.5°C 51.5°F10.8°C 84% 2.7 mph ESE4.3 kmh ESE 4.9 mph7.9 kmh 29.41 in995.9 mb 0.00 in0.0 mm 0.00 in0.0 mm 0.00 in0.0 mm
06:45 AM 56.3°F13.5°C 51.5°F10.8°C 84% 2.6 mph ESE4.2 kmh ESE 7.4 mph11.9 kmh 29.41 in995.9 mb 0.00 in0.0 mm 0.00 in0.0 mm 0.00 in0.0 mm
06:50 AM 56.3°F13.5°C 51.5°F10.8°C 84% 2.7 mph ESE4.3 kmh ESE 4.9 mph7.9 kmh 29.41 in995.9 mb 0.00 in0.0 mm 0.00 in0.0 mm 0.00 in0.0 mm
06:55 AM 56.4°F13.6°C 51.6°F10.9°C 84% 4.2 mph E6.8 kmh E 7.4 mph11.9 kmh 29.41 in995.9 mb 0.00 in0.0 mm 0.00 in0.0 mm 0.00 in0.0 mm
07:00 AM 56.5°F13.6°C 51.7°F10.9°C 84% 2.1 mph ESE3.4 kmh ESE 7.4 mph11.9 kmh 29.41 in995.9 mb 0.00 in0.0 mm 0.00 in0.0 mm 0.00 in0.0 mm
07:05 AM 56.5°F13.6°C 51.7°F10.9°C 84% 2.0 mph SE3.2 kmh SE 4.9 mph7.9 kmh 29.41 in995.9 mb 0.00 in0.0 mm 0.00 in0.0 mm 0.00 in0.0 mm
07:10 AM 56.7°F13.7°C 51.9°F11.1°C 84% 4.5 mph ESE7.2 kmh ESE 9.8 mph15.8 kmh 29.41 in995.9 mb 0.00 in0.0 mm 0.00 in0.0 mm 0.00 in0.0 mm
07:15 AM 56.7°F13.7°C 51.9°F11.1°C 84% 4.5 mph E7.2 kmh E 9.8 mph15.8 kmh 29.42 in996.3 mb 0.00 in0.0 mm 0.00 in0.0 mm 0.00 in0.0 mm
07:20 AM 56.7°F13.7°C 51.9°F11.1°C 84% 3.6 mph SE5.8 kmh SE 7.4 mph11.9 kmh 29.42 in996.3 mb 0.00 in0.0 mm 0.00 in0.0 mm 0.00 in0.0 mm
07:25 AM 56.7°F13.7°C 51.9°F11.1°C 84% 4.1 mph E6.6 kmh E 9.8 mph15.8 kmh 29.42 in996.3 mb 0.00 in0.0 mm 0.00 in0.0 mm 0.00 in0.0 mm
07:30 AM 56.7°F13.7°C 51.6°F10.9°C 83% 5.5 mph ESE8.9 kmh ESE 12.3 mph19.8 kmh 29.42 in996.3 mb 0.00 in0.0 mm 0.00 in0.0 mm 0.00 in0.0 mm
07:35 AM 56.8°F13.8°C 51.7°F10.9°C 83% 4.3 mph E6.9 kmh E 7.4 mph11.9 kmh 29.42 in996.3 mb 0.00 in0.0 mm 0.00 in0.0 mm 0.00 in0.0 mm
07:40 AM 56.8°F13.8°C 51.7°F10.9°C 83% 5.8 mph SE9.3 kmh SE 9.8 mph15.8 kmh 29.42 in996.3 mb 0.00 in0.0 mm 0.00 in0.0 mm 0.00 in0.0 mm
07:45 AM 56.8°F13.8°C 51.5°F10.8°C 82% 5.8 mph E9.3 kmh E 15.0 mph24.1 kmh 29.42 in996.3 mb 0.00 in0.0 mm 0.00 in0.0 mm 0.00 in0.0 mm
07:50 AM 56.8°F13.8°C 51.4°F10.8°C 82% 5.4 mph E8.7 kmh E 9.8 mph15.8 kmh 29.41 in995.9 mb 0.00 in0.0 mm 0.00 in0.0 mm 0.00 in0.0 mm
07:55 AM 56.8°F13.8°C 51.4°F10.8°C 82% 5.4 mph E8.7 kmh E 12.3 mph19.8 kmh 29.41 in995.9 mb 0.00 in0.0 mm 0.00 in0.0 mm 0.00 in0.0 mm
08:00 AM 56.8°F13.8°C 51.4°F10.8°C 82% 6.3 mph E10.1 kmh E 12.3 mph19.8 kmh 29.41 in995.9 mb 0.00 in0.0 mm 0.00 in0.0 mm 0.00 in0.0 mm
08:05 AM 56.8°F13.8°C 51.1°F10.6°C 81% 5.9 mph ESE9.5 kmh ESE 7.4 mph11.9 kmh 29.41 in995.9 mb 0.00 in0.0 mm 0.00 in0.0 mm 0.00 in0.0 mm
08:10 AM 56.9°F13.8°C 50.8°F10.4°C 80% 7.0 mph E11.3 kmh E 12.3 mph19.8 kmh 29.41 in995.9 mb 0.00 in0.0 mm 0.00 in0.0 mm 0.00 in0.0 mm
08:15 AM 57.0°F13.9°C 50.9°F10.5°C 80% 7.0 mph ESE11.3 kmh ESE 12.3 mph19.8 kmh 29.41 in995.9 mb 0.00 in0.0 mm 0.00 in0.0 mm 0.00 in0.0 mm
08:20 AM 57.2°F14.0°C 51.1°F10.6°C 80% 7.8 mph E12.6 kmh E 15.0 mph24.1 kmh 29.40 in995.6 mb 0.00 in0.0 mm 0.00 in0.0 mm 0.00 in0.0 mm
08:25 AM 57.4°F14.1°C 51.3°F10.7°C 80% 5.5 mph E8.9 kmh E 9.8 mph15.8 kmh 29.40 in995.6 mb 0.00 in0.0 mm 0.00 in0.0 mm 0.00 in0.0 mm
08:30 AM 57.6°F14.2°C 51.4°F10.8°C 80% 7.3 mph ESE11.7 kmh ESE 12.3 mph19.8 kmh 29.40 in995.6 mb 0.00 in0.0 mm 0.00 in0.0 mm 0.00 in0.0 mm
08:35 AM 57.7°F14.3°C 51.6°F10.9°C 80% 7.4 mph SE11.9 kmh SE 15.0 mph24.1 kmh 29.40 in995.6 mb 0.00 in0.0 mm 0.00 in0.0 mm 0.00 in0.0 mm
08:40 AM 57.7°F14.3°C 51.6°F10.9°C 80% 6.8 mph ESE10.9 kmh ESE 15.0 mph24.1 kmh 29.40 in995.6 mb 0.00 in0.0 mm 0.00 in0.0 mm 0.00 in0.0 mm
08:45 AM 57.7°F14.3°C 51.6°F10.9°C 80% 7.9 mph SE12.7 kmh SE 15.0 mph24.1 kmh 29.39 in995.3 mb 0.00 in0.0 mm 0.00 in0.0 mm 0.00 in0.0 mm
08:50 AM 57.7°F14.3°C 51.6°F10.9°C 80% 7.7 mph SE12.4 kmh SE 9.8 mph15.8 kmh 29.39 in995.3 mb 0.00 in0.0 mm 0.00 in0.0 mm 0.00 in0.0 mm
08:55 AM 57.9°F14.4°C 51.7°F10.9°C 80% 8.2 mph ESE13.2 kmh ESE 15.0 mph24.1 kmh 29.39 in995.3 mb 0.00 in0.0 mm 0.00 in0.0 mm 0.00 in0.0 mm
09:00 AM 57.9°F14.4°C 51.5°F10.8°C 79% 6.9 mph ESE11.1 kmh ESE 15.0 mph24.1 kmh 29.39 in995.3 mb 0.00 in0.0 mm 0.00 in0.0 mm 0.00 in0.0 mm
09:05 AM 58.1°F14.5°C 51.1°F10.6°C 78% 9.0 mph ESE14.5 kmh ESE 19.9 mph32.0 kmh 29.39 in995.3 mb 0.00 in0.0 mm 0.00 in0.0 mm 0.00 in0.0 mm
09:10 AM 58.3°F14.6°C 51.2°F10.7°C 77% 7.5 mph SE12.1 kmh SE 17.4 mph28.0 kmh 29.39 in995.3 mb 0.00 in0.0 mm 0.00 in0.0 mm 0.00 in0.0 mm
09:15 AM 58.5°F14.7°C 51.3°F10.7°C 77% 6.3 mph SE10.1 kmh SE 12.3 mph19.8 kmh 29.39 in995.3 mb 0.00 in0.0 mm 0.00 in0.0 mm 0.00 in0.0 mm
09:20 AM 58.6°F14.8°C 51.6°F10.9°C 78% 6.6 mph E10.6 kmh E 15.0 mph24.1 kmh 29.39 in995.3 mb 0.00 in0.0 mm 0.00 in0.0 mm 0.00 in0.0 mm
09:25 AM 58.8°F14.9°C 52.0°F11.1°C 78% 5.3 mph ESE8.5 kmh ESE 9.8 mph15.8 kmh 29.39 in995.3 mb 0.00 in0.0 mm 0.00 in0.0 mm 0.00 in0.0 mm
09:30 AM 59.0°F15.0°C 52.1°F11.2°C 78% 6.3 mph ESE10.1 kmh ESE 9.8 mph15.8 kmh 29.39 in995.3 mb 0.00 in0.0 mm 0.00 in0.0 mm 0.00 in0.0 mm
09:35 AM 59.2°F15.1°C 52.3°F11.3°C 78% 6.1 mph E9.8 kmh E 12.3 mph19.8 kmh 29.39 in995.3 mb 0.00 in0.0 mm 0.00 in0.0 mm 0.00 in0.0 mm
09:40 AM 59.2°F15.1°C 52.4°F11.3°C 78% 6.6 mph ESE10.6 kmh ESE 12.3 mph19.8 kmh 29.39 in995.3 mb 0.00 in0.0 mm 0.00 in0.0 mm 0.00 in0.0 mm
09:45 AM 59.4°F15.2°C 52.5°F11.4°C 78% 8.5 mph ESE13.7 kmh ESE 12.3 mph19.8 kmh 29.39 in995.3 mb 0.00 in0.0 mm 0.00 in0.0 mm 0.00 in0.0 mm
09:50 AM 59.5°F15.3°C 52.6°F11.4°C 78% 8.1 mph SE13.0 kmh SE 17.4 mph28.0 kmh 29.39 in995.3 mb 0.00 in0.0 mm 0.00 in0.0 mm 0.00 in0.0 mm
09:55 AM 59.6°F15.3°C 52.7°F11.5°C 78% 8.2 mph E13.2 kmh E 17.4 mph28.0 kmh 29.38 in994.9 mb 0.00 in0.0 mm 0.00 in0.0 mm 0.00 in0.0 mm
10:00 AM 59.8°F15.4°C 52.9°F11.6°C 78% 6.1 mph SE9.8 kmh SE 12.3 mph19.8 kmh 29.38 in994.9 mb 0.00 in0.0 mm 0.00 in0.0 mm 0.00 in0.0 mm
10:05 AM 60.0°F15.6°C 52.8°F11.6°C 77% 6.8 mph SE10.9 kmh SE 15.0 mph24.1 kmh 29.37 in994.6 mb 0.00 in0.0 mm 0.00 in0.0 mm 0.00 in0.0 mm
10:10 AM 60.2°F15.7°C 53.0°F11.7°C 77% 5.5 mph SE8.9 kmh SE 9.8 mph15.8 kmh 29.37 in994.6 mb 0.00 in0.0 mm 0.00 in0.0 mm 0.00 in0.0 mm
10:15 AM 60.4°F15.8°C 53.1°F11.7°C 77% 6.5 mph ESE10.5 kmh ESE 12.3 mph19.8 kmh 29.38 in994.9 mb 0.00 in0.0 mm 0.00 in0.0 mm 0.00 in0.0 mm
10:20 AM 60.6°F15.9°C 53.3°F11.8°C 77% 4.3 mph ESE6.9 kmh ESE 7.4 mph11.9 kmh 29.38 in994.9 mb 0.00 in0.0 mm 0.00 in0.0 mm 0.00 in0.0 mm
10:25 AM 60.8°F16.0°C 53.6°F12.0°C 77% 6.9 mph SE11.1 kmh SE 19.9 mph32.0 kmh 29.38 in994.9 mb 0.00 in0.0 mm 0.00 in0.0 mm 0.00 in0.0 mm
10:30 AM 61.0°F16.1°C 53.9°F12.2°C 78% 5.7 mph SE9.2 kmh SE 12.3 mph19.8 kmh 29.38 in994.9 mb 0.00 in0.0 mm 0.00 in0.0 mm 0.00 in0.0 mm
10:35 AM 61.2°F16.2°C 54.3°F12.4°C 78% 5.7 mph SE9.2 kmh SE 9.8 mph15.8 kmh 29.38 in994.9 mb 0.00 in0.0 mm 0.00 in0.0 mm 0.00 in0.0 mm
10:40 AM 61.3°F16.3°C 54.6°F12.6°C 79% 4.4 mph ESE7.1 kmh ESE 7.4 mph11.9 kmh 29.38 in994.9 mb 0.00 in0.0 mm 0.00 in0.0 mm 0.00 in0.0 mm
10:45 AM 61.5°F16.4°C 55.0°F12.8°C 79% 4.7 mph SE7.6 kmh SE 9.8 mph15.8 kmh 29.38 in994.9 mb 0.00 in0.0 mm 0.00 in0.0 mm 0.00 in0.0 mm
10:50 AM 61.7°F16.5°C 55.1°F12.8°C 79% 8.0 mph SE12.9 kmh SE 15.0 mph24.1 kmh 29.37 in994.6 mb 0.00 in0.0 mm 0.00 in0.0 mm 0.00 in0.0 mm
10:55 AM 61.9°F16.6°C 55.5°F13.1°C 80% 7.5 mph SSE12.1 kmh SSE 12.3 mph19.8 kmh 29.37 in994.6 mb 0.00 in0.0 mm 0.00 in0.0 mm 0.00 in0.0 mm
11:00 AM 62.1°F16.7°C 55.7°F13.2°C 80% 5.8 mph SE9.3 kmh SE 15.0 mph24.1 kmh 29.37 in994.6 mb 0.00 in0.0 mm 0.00 in0.0 mm 0.00 in0.0 mm
11:05 AM 62.2°F16.8°C 56.2°F13.4°C 81% 8.2 mph SSE13.2 kmh SSE 17.4 mph28.0 kmh 29.37 in994.6 mb 0.00 in0.0 mm 0.00 in0.0 mm 0.00 in0.0 mm
11:10 AM 62.3°F16.8°C 56.4°F13.6°C 81% 6.4 mph SE10.3 kmh SE 12.3 mph19.8 kmh 29.36 in994.2 mb 0.00 in0.0 mm 0.00 in0.0 mm 0.00 in0.0 mm
11:15 AM 62.4°F16.9°C 56.5°F13.6°C 81% 7.2 mph SSE11.6 kmh SSE 12.3 mph19.8 kmh 29.37 in994.6 mb 0.00 in0.0 mm 0.00 in0.0 mm 0.00 in0.0 mm
11:20 AM 62.6°F17.0°C 56.7°F13.7°C 81% 7.3 mph SSE11.7 kmh SSE 15.0 mph24.1 kmh 29.36 in994.2 mb 0.00 in0.0 mm 0.00 in0.0 mm 0.00 in0.0 mm
11:25 AM 62.6°F17.0°C 56.7°F13.7°C 81% 7.1 mph SSE11.4 kmh SSE 12.3 mph19.8 kmh 29.37 in994.6 mb 0.00 in0.0 mm 0.00 in0.0 mm 0.00 in0.0 mm
11:30 AM 62.6°F17.0°C 56.8°F13.8°C 81% 6.8 mph SSE10.9 kmh SSE 9.8 mph15.8 kmh 29.37 in994.6 mb 0.00 in0.0 mm 0.00 in0.0 mm 0.00 in0.0 mm
11:35 AM 62.7°F17.1°C 57.1°F13.9°C 82% 1.9 mph S3.1 kmh S 7.4 mph11.9 kmh 29.37 in994.6 mb 0.00 in0.0 mm 0.00 in0.0 mm 0.00 in0.0 mm
11:40 AM 62.8°F17.1°C 57.4°F14.1°C 82% 0.9 mph S1.4 kmh S 7.4 mph11.9 kmh 29.38 in994.9 mb 0.00 in0.0 mm 0.00 in0.0 mm 0.00 in0.0 mm
11:45 AM 62.7°F17.1°C 57.6°F14.2°C 84% 0.4 mph WSW0.6 kmh WSW 2.5 mph4.0 kmh 29.39 in995.3 mb 0.00 in0.0 mm 0.00 in0.0 mm 0.00 in0.0 mm
11:50 AM 62.6°F17.0°C 58.2°F14.6°C 86% Calm Calm -- 29.39 in995.3 mb 0.01 in0.3 mm 0.12 in3.0 mm 0.01 in0.3 mm
11:55 AM 62.6°F17.0°C 58.3°F14.6°C 86% Calm Calm -- 29.39 in995.3 mb 0.01 in0.3 mm 0.00 in0.0 mm 0.01 in0.3 mm
12:00 PM 62.6°F17.0°C 58.3°F14.6°C 86% Calm Calm -- 29.39 in995.3 mb 0.01 in0.3 mm 0.00 in0.0 mm 0.01 in0.3 mm
12:05 PM 62.5°F16.9°C 59.7°F15.4°C 90% 3.2 mph S5.1 kmh S 7.4 mph11.9 kmh 29.37 in994.6 mb 0.22 in5.6 mm 2.52 in64.0 mm 0.22 in5.6 mm
12:10 PM 62.3°F16.8°C 59.7°F15.4°C 91% 3.8 mph S6.1 kmh S 7.4 mph11.9 kmh 29.36 in994.2 mb 0.24 in6.1 mm 0.24 in6.1 mm 0.24 in6.1 mm
12:15 PM 62.1°F16.7°C 59.8°F15.4°C 92% 6.2 mph SSE10.0 kmh SSE 9.8 mph15.8 kmh 29.36 in994.2 mb 0.24 in6.1 mm 0.00 in0.0 mm 0.24 in6.1 mm
12:20 PM 61.9°F16.6°C 59.9°F15.5°C 93% 4.5 mph SSE7.2 kmh SSE 9.8 mph15.8 kmh 29.36 in994.2 mb 0.24 in6.1 mm 0.00 in0.0 mm 0.24 in6.1 mm
12:25 PM 61.8°F16.6°C 59.8°F15.4°C 93% 3.9 mph SE6.3 kmh SE 7.4 mph11.9 kmh 29.36 in994.2 mb 0.24 in6.1 mm 0.00 in0.0 mm 0.24 in6.1 mm
12:30 PM 61.6°F16.4°C 59.9°F15.5°C 94% 4.4 mph SSE7.1 kmh SSE 7.4 mph11.9 kmh 29.37 in994.6 mb 0.24 in6.1 mm 0.00 in0.0 mm 0.24 in6.1 mm
12:35 PM 61.5°F16.4°C 59.8°F15.4°C 94% 5.1 mph SSE8.2 kmh SSE 9.8 mph15.8 kmh 29.36 in994.2 mb 0.24 in6.1 mm 0.00 in0.0 mm 0.24 in6.1 mm
12:40 PM 61.6°F16.4°C 59.9°F15.5°C 94% 3.5 mph SSE5.6 kmh SSE 7.4 mph11.9 kmh 29.36 in994.2 mb 0.24 in6.1 mm 0.00 in0.0 mm 0.24 in6.1 mm
12:45 PM 61.7°F16.5°C 60.3°F15.7°C 95% 4.5 mph SE7.2 kmh SE 7.4 mph11.9 kmh 29.36 in994.2 mb 0.24 in6.1 mm 0.00 in0.0 mm 0.24 in6.1 mm
12:50 PM 61.7°F16.5°C 60.3°F15.7°C 95% 4.5 mph SE7.2 kmh SE 7.4 mph11.9 kmh 29.36 in994.2 mb 0.23 in5.8 mm 0.00 in0.0 mm 0.24 in6.1 mm
12:55 PM 61.8°F16.6°C 60.1°F15.6°C 94% 3.5 mph S5.6 kmh S 7.4 mph11.9 kmh 29.35 in993.9 mb 0.23 in5.8 mm 0.00 in0.0 mm 0.24 in6.1 mm
01:00 PM 62.0°F16.7°C 60.3°F15.7°C 94% 4.0 mph SSE6.4 kmh SSE 7.4 mph11.9 kmh 29.34 in993.6 mb 0.23 in5.8 mm 0.00 in0.0 mm 0.24 in6.1 mm
01:05 PM 62.2°F16.8°C 60.4°F15.8°C 94% 5.7 mph SE9.2 kmh SE 15.0 mph24.1 kmh 29.34 in993.6 mb 0.02 in0.5 mm 0.00 in0.0 mm 0.24 in6.1 mm
01:10 PM 62.4°F16.9°C 60.6°F15.9°C 94% 6.2 mph SE10.0 kmh SE 12.3 mph19.8 kmh 29.34 in993.6 mb 0.00 in0.0 mm 0.00 in0.0 mm 0.24 in6.1 mm
01:15 PM 62.7°F17.1°C 60.9°F16.1°C 94% 7.4 mph SSE11.9 kmh SSE 12.3 mph19.8 kmh 29.34 in993.6 mb 0.00 in0.0 mm 0.00 in0.0 mm 0.24 in6.1 mm
01:20 PM 62.9°F17.2°C 61.1°F16.2°C 94% 4.6 mph SE7.4 kmh SE 9.8 mph15.8 kmh 29.34 in993.6 mb 0.00 in0.0 mm 0.00 in0.0 mm 0.24 in6.1 mm
01:25 PM 63.0°F17.2°C 61.2°F16.2°C 94% 4.3 mph S6.9 kmh S 9.8 mph15.8 kmh 29.34 in993.6 mb 0.00 in0.0 mm 0.00 in0.0 mm 0.24 in6.1 mm
01:30 PM 63.0°F17.2°C 61.2°F16.2°C 94% 3.5 mph S5.6 kmh S 4.9 mph7.9 kmh 29.34 in993.6 mb 0.00 in0.0 mm 0.00 in0.0 mm 0.24 in6.1 mm
01:35 PM 63.0°F17.2°C 61.2°F16.2°C 94% 2.6 mph SSE4.2 kmh SSE 7.4 mph11.9 kmh 29.34 in993.6 mb 0.00 in0.0 mm 0.00 in0.0 mm 0.24 in6.1 mm
01:40 PM 63.0°F17.2°C 61.2°F16.2°C 94% 3.0 mph S4.8 kmh S 7.4 mph11.9 kmh 29.34 in993.6 mb 0.00 in0.0 mm 0.00 in0.0 mm 0.24 in6.1 mm
01:45 PM 63.0°F17.2°C 61.2°F16.2°C 94% 0.9 mph S1.4 kmh S 2.5 mph4.0 kmh 29.34 in993.6 mb 0.00 in0.0 mm 0.00 in0.0 mm 0.24 in6.1 mm
01:50 PM 63.0°F17.2°C 61.2°F16.2°C 94% 0.2 mph SW0.3 kmh SW 2.5 mph4.0 kmh 29.35 in993.9 mb 0.00 in0.0 mm 0.00 in0.0 mm 0.24 in6.1 mm
01:55 PM 63.0°F17.2°C 61.3°F16.3°C 94% 0.3 mph SW0.5 kmh SW 2.5 mph4.0 kmh 29.34 in993.6 mb 0.00 in0.0 mm 0.00 in0.0 mm 0.24 in6.1 mm
02:00 PM 63.1°F17.3°C 61.5°F16.4°C 95% 0.5 mph SE0.8 kmh SE 4.9 mph7.9 kmh 29.34 in993.6 mb 0.00 in0.0 mm 0.00 in0.0 mm 0.24 in6.1 mm
02:05 PM 63.2°F17.3°C 61.8°F16.6°C 95% 1.6 mph S2.6 kmh S 4.9 mph7.9 kmh 29.34 in993.6 mb 0.00 in0.0 mm 0.00 in0.0 mm 0.24 in6.1 mm
02:10 PM 63.4°F17.4°C 62.2°F16.8°C 96% Calm Calm 2.5 mph4.0 kmh 29.34 in993.6 mb 0.00 in0.0 mm 0.00 in0.0 mm 0.24 in6.1 mm
02:15 PM 63.7°F17.6°C 62.6°F17.0°C 96% 2.2 mph S3.5 kmh S 4.9 mph7.9 kmh 29.34 in993.6 mb 0.00 in0.0 mm 0.00 in0.0 mm 0.24 in6.1 mm
02:20 PM 63.9°F17.7°C 62.8°F17.1°C 96% 0.9 mph S1.4 kmh S 2.5 mph4.0 kmh 29.34 in993.6 mb 0.00 in0.0 mm 0.00 in0.0 mm 0.24 in6.1 mm
02:25 PM 64.2°F17.9°C 63.0°F17.2°C 96% 0.8 mph S1.3 kmh S 2.5 mph4.0 kmh 29.34 in993.6 mb 0.00 in0.0 mm 0.00 in0.0 mm 0.24 in6.1 mm
02:30 PM 64.4°F18.0°C 63.3°F17.4°C 96% 0.7 mph S1.1 kmh S 2.5 mph4.0 kmh 29.33 in993.2 mb 0.00 in0.0 mm 0.00 in0.0 mm 0.24 in6.1 mm
02:35 PM 64.6°F18.1°C 63.3°F17.4°C 96% 0.1 mph SW0.2 kmh SW 2.5 mph4.0 kmh 29.33 in993.2 mb 0.00 in0.0 mm 0.00 in0.0 mm 0.24 in6.1 mm
02:40 PM 64.8°F18.2°C 63.6°F17.6°C 96% 1.1 mph S1.8 kmh S 4.9 mph7.9 kmh 29.33 in993.2 mb 0.00 in0.0 mm 0.00 in0.0 mm 0.24 in6.1 mm
02:45 PM 64.8°F18.2°C 63.5°F17.5°C 95% 2.6 mph S4.2 kmh S 7.4 mph11.9 kmh 29.32 in992.9 mb 0.00 in0.0 mm 0.00 in0.0 mm 0.24 in6.1 mm
02:50 PM 65.0°F18.3°C 63.6°F17.6°C 95% 3.0 mph SSE4.8 kmh SSE 7.4 mph11.9 kmh 29.32 in992.9 mb 0.00 in0.0 mm 0.00 in0.0 mm 0.24 in6.1 mm
02:55 PM 65.5°F18.6°C 63.8°F17.7°C 94% 5.5 mph SSE8.9 kmh SSE 9.8 mph15.8 kmh 29.32 in992.9 mb 0.00 in0.0 mm 0.00 in0.0 mm 0.24 in6.1 mm
03:00 PM 65.7°F18.7°C 63.9°F17.7°C 94% 5.1 mph S8.2 kmh S 7.4 mph11.9 kmh 29.32 in992.9 mb 0.00 in0.0 mm 0.00 in0.0 mm 0.24 in6.1 mm
03:05 PM 65.7°F18.7°C 63.9°F17.7°C 94% 5.1 mph S8.2 kmh S 7.4 mph11.9 kmh 29.32 in992.9 mb 0.00 in0.0 mm 0.00 in0.0 mm 0.24 in6.1 mm
03:10 PM 65.8°F18.8°C 62.8°F17.1°C 90% 0.2 mph SW0.3 kmh SW 2.5 mph4.0 kmh 29.32 in992.9 mb 0.00 in0.0 mm 0.00 in0.0 mm 0.24 in6.1 mm
03:15 PM 66.2°F19.0°C 63.2°F17.3°C 90% 0.7 mph S1.1 kmh S 4.9 mph7.9 kmh 29.32 in992.9 mb 0.00 in0.0 mm 0.00 in0.0 mm 0.24 in6.1 mm
03:20 PM 66.5°F19.2°C 63.5°F17.5°C 90% 0.2 mph SW0.3 kmh SW 2.5 mph4.0 kmh 29.32 in992.9 mb 0.00 in0.0 mm 0.00 in0.0 mm 0.24 in6.1 mm
03:25 PM 66.7°F19.3°C 63.6°F17.6°C 90% Calm Calm -- 29.32 in992.9 mb 0.00 in0.0 mm 0.00 in0.0 mm 0.24 in6.1 mm
03:30 PM 66.9°F19.4°C 64.0°F17.8°C 91% 0.6 mph SSW1.0 kmh SSW 4.9 mph7.9 kmh 29.33 in993.2 mb 0.00 in0.0 mm 0.00 in0.0 mm 0.24 in6.1 mm
03:35 PM 66.9°F19.4°C 64.2°F17.9°C 91% 2.7 mph S4.3 kmh S 4.9 mph7.9 kmh 29.32 in992.9 mb 0.00 in0.0 mm 0.00 in0.0 mm 0.24 in6.1 mm
03:40 PM 66.8°F19.3°C 64.1°F17.8°C 91% 1.4 mph SSW2.3 kmh SSW 4.9 mph7.9 kmh 29.32 in992.9 mb 0.00 in0.0 mm 0.00 in0.0 mm 0.24 in6.1 mm
03:45 PM 66.7°F19.3°C 64.0°F17.8°C 91% 0.2 mph SW0.3 kmh SW 2.5 mph4.0 kmh 29.32 in992.9 mb 0.00 in0.0 mm 0.00 in0.0 mm 0.24 in6.1 mm
03:50 PM 66.9°F19.4°C 64.2°F17.9°C 91% 0.3 mph SSE0.5 kmh SSE 2.5 mph4.0 kmh 29.32 in992.9 mb 0.00 in0.0 mm 0.00 in0.0 mm 0.24 in6.1 mm
03:55 PM 67.0°F19.4°C 64.2°F17.9°C 91% 0.3 mph SW0.5 kmh SW 2.5 mph4.0 kmh 29.32 in992.9 mb 0.00 in0.0 mm 0.00 in0.0 mm 0.24 in6.1 mm
04:00 PM 67.2°F19.6°C 64.1°F17.8°C 90% 0.3 mph SW0.5 kmh SW 2.5 mph4.0 kmh 29.32 in992.9 mb 0.00 in0.0 mm 0.00 in0.0 mm 0.24 in6.1 mm
04:05 PM 67.3°F19.6°C 64.3°F17.9°C 90% 0.9 mph S1.4 kmh S 4.9 mph7.9 kmh 29.31 in992.6 mb 0.00 in0.0 mm 0.00 in0.0 mm 0.24 in6.1 mm
04:10 PM 67.5°F19.7°C 64.3°F17.9°C 89% 0.2 mph S0.3 kmh S 2.5 mph4.0 kmh 29.31 in992.6 mb 0.00 in0.0 mm 0.00 in0.0 mm 0.24 in6.1 mm
04:15 PM 67.6°F19.8°C 64.2°F17.9°C 89% 0.3 mph SW0.5 kmh SW 2.5 mph4.0 kmh 29.31 in992.6 mb 0.00 in0.0 mm 0.00 in0.0 mm 0.24 in6.1 mm
04:20 PM 67.6°F19.8°C 64.1°F17.8°C 89% 0.6 mph SSW1.0 kmh SSW 2.5 mph4.0 kmh 29.31 in992.6 mb 0.00 in0.0 mm 0.00 in0.0 mm 0.24 in6.1 mm
04:25 PM 67.7°F19.8°C 64.1°F17.8°C 88% Calm Calm 2.5 mph4.0 kmh 29.30 in992.2 mb 0.00 in0.0 mm 0.00 in0.0 mm 0.24 in6.1 mm
04:30 PM 67.9°F19.9°C 64.1°F17.8°C 88% 2.1 mph S3.4 kmh S 7.4 mph11.9 kmh 29.29 in991.9 mb 0.00 in0.0 mm 0.00 in0.0 mm 0.24 in6.1 mm
04:35 PM 68.0°F20.0°C 63.8°F17.7°C 86% 0.4 mph S0.6 kmh S 2.5 mph4.0 kmh 29.29 in991.9 mb 0.00 in0.0 mm 0.00 in0.0 mm 0.24 in6.1 mm
04:40 PM 68.4°F20.2°C 63.7°F17.6°C 85% 2.4 mph SSE3.9 kmh SSE 7.4 mph11.9 kmh 29.29 in991.9 mb 0.00 in0.0 mm 0.00 in0.0 mm 0.24 in6.1 mm
04:45 PM 68.6°F20.3°C 63.8°F17.7°C 85% 4.4 mph S7.1 kmh S 7.4 mph11.9 kmh 29.29 in991.9 mb 0.00 in0.0 mm 0.00 in0.0 mm 0.24 in6.1 mm
04:50 PM 68.7°F20.4°C 63.8°F17.7°C 84% 2.4 mph SSW3.9 kmh SSW 7.4 mph11.9 kmh 29.29 in991.9 mb 0.00 in0.0 mm 0.00 in0.0 mm 0.24 in6.1 mm
04:55 PM 68.7°F20.4°C 63.7°F17.6°C 84% 2.6 mph S4.2 kmh S 7.4 mph11.9 kmh 29.30 in992.2 mb 0.00 in0.0 mm 0.00 in0.0 mm 0.24 in6.1 mm
05:00 PM 68.9°F20.5°C 63.7°F17.6°C 84% 2.6 mph SE4.2 kmh SE 7.4 mph11.9 kmh 29.30 in992.2 mb 0.00 in0.0 mm 0.00 in0.0 mm 0.24 in6.1 mm
05:05 PM 69.2°F20.7°C 63.8°F17.7°C 83% 4.2 mph SSE6.8 kmh SSE 7.4 mph11.9 kmh 29.30 in992.2 mb 0.00 in0.0 mm 0.00 in0.0 mm 0.24 in6.1 mm
05:10 PM 69.3°F20.7°C 64.0°F17.8°C 83% 1.2 mph S1.9 kmh S 4.9 mph7.9 kmh 29.29 in991.9 mb 0.00 in0.0 mm 0.00 in0.0 mm 0.24 in6.1 mm
05:15 PM 69.5°F20.8°C 64.0°F17.8°C 83% 4.0 mph S6.4 kmh S 7.4 mph11.9 kmh 29.28 in991.5 mb 0.00 in0.0 mm 0.00 in0.0 mm 0.24 in6.1 mm
05:20 PM 69.8°F21.0°C 64.0°F17.8°C 82% 6.6 mph S10.6 kmh S 12.3 mph19.8 kmh 29.28 in991.5 mb 0.00 in0.0 mm 0.00 in0.0 mm 0.24 in6.1 mm
05:25 PM 70.1°F21.2°C 64.5°F18.1°C 82% 4.1 mph SSE6.6 kmh SSE 9.8 mph15.8 kmh 29.28 in991.5 mb 0.00 in0.0 mm 0.00 in0.0 mm 0.24 in6.1 mm
05:30 PM 70.3°F21.3°C 64.8°F18.2°C 83% 5.6 mph S9.0 kmh S 9.8 mph15.8 kmh 29.28 in991.5 mb 0.00 in0.0 mm 0.00 in0.0 mm 0.24 in6.1 mm
05:35 PM 70.3°F21.3°C 64.9°F18.3°C 83% 4.7 mph S7.6 kmh S 9.8 mph15.8 kmh 29.28 in991.5 mb 0.00 in0.0 mm 0.00 in0.0 mm 0.24 in6.1 mm
05:40 PM 70.5°F21.4°C 65.1°F18.4°C 83% 4.8 mph S7.7 kmh S 7.4 mph11.9 kmh 29.28 in991.5 mb 0.00 in0.0 mm 0.00 in0.0 mm 0.24 in6.1 mm
05:45 PM 70.3°F21.3°C 65.2°F18.4°C 84% 2.9 mph SSE4.7 kmh SSE 9.8 mph15.8 kmh 29.28 in991.5 mb 0.00 in0.0 mm 0.00 in0.0 mm 0.24 in6.1 mm
05:50 PM 70.1°F21.2°C 65.0°F18.3°C 84% 7.2 mph S11.6 kmh S 12.3 mph19.8 kmh 29.28 in991.5 mb 0.00 in0.0 mm 0.00 in0.0 mm 0.24 in6.1 mm
05:55 PM 69.9°F21.1°C 64.8°F18.2°C 84% 4.2 mph SSE6.8 kmh SSE 7.4 mph11.9 kmh 29.28 in991.5 mb 0.00 in0.0 mm 0.00 in0.0 mm 0.24 in6.1 mm
06:00 PM 69.7°F20.9°C 64.7°F18.2°C 84% 3.9 mph S6.3 kmh S 7.4 mph11.9 kmh 29.29 in991.9 mb 0.00 in0.0 mm 0.00 in0.0 mm 0.24 in6.1 mm
06:05 PM 69.6°F20.9°C 64.5°F18.1°C 84% 4.6 mph SSE7.4 kmh SSE 12.3 mph19.8 kmh 29.28 in991.5 mb 0.00 in0.0 mm 0.00 in0.0 mm 0.24 in6.1 mm
06:10 PM 69.4°F20.8°C 64.3°F17.9°C 84% 2.7 mph S4.3 kmh S 7.4 mph11.9 kmh 29.28 in991.5 mb 0.00 in0.0 mm 0.00 in0.0 mm 0.24 in6.1 mm
06:15 PM 69.5°F20.8°C 64.0°F17.8°C 83% 6.3 mph SSE10.1 kmh SSE 9.8 mph15.8 kmh 29.28 in991.5 mb 0.00 in0.0 mm 0.00 in0.0 mm 0.24 in6.1 mm
06:20 PM 69.8°F21.0°C 63.7°F17.6°C 81% 5.8 mph SSE9.3 kmh SSE 12.3 mph19.8 kmh 29.27 in991.2 mb 0.00 in0.0 mm 0.00 in0.0 mm 0.24 in6.1 mm
06:25 PM 70.2°F21.2°C 64.4°F18.0°C 82% 4.5 mph S7.2 kmh S 9.8 mph15.8 kmh 29.27 in991.2 mb 0.00 in0.0 mm 0.00 in0.0 mm 0.24 in6.1 mm
06:30 PM 70.5°F21.4°C 64.6°F18.1°C 82% 6.9 mph SSE11.1 kmh SSE 12.3 mph19.8 kmh 29.26 in990.9 mb 0.00 in0.0 mm 0.00 in0.0 mm 0.24 in6.1 mm
06:35 PM 70.9°F21.6°C 64.7°F18.2°C 81% 4.6 mph S7.4 kmh S 12.3 mph19.8 kmh 29.26 in990.9 mb 0.00 in0.0 mm 0.00 in0.0 mm 0.24 in6.1 mm
06:40 PM 71.2°F21.8°C 65.0°F18.3°C 81% 6.6 mph SSE10.6 kmh SSE 12.3 mph19.8 kmh 29.26 in990.9 mb 0.00 in0.0 mm 0.00 in0.0 mm 0.24 in6.1 mm
06:45 PM 71.5°F21.9°C 65.3°F18.5°C 81% 7.7 mph SE12.4 kmh SE 15.0 mph24.1 kmh 29.25 in990.5 mb 0.00 in0.0 mm 0.00 in0.0 mm 0.24 in6.1 mm
06:50 PM 71.5°F21.9°C 65.5°F18.6°C 81% 8.6 mph S13.8 kmh S 17.4 mph28.0 kmh 29.25 in990.5 mb 0.00 in0.0 mm 0.00 in0.0 mm 0.24 in6.1 mm
06:55 PM 71.3°F21.8°C 65.5°F18.6°C 82% 7.2 mph SSE11.6 kmh SSE 17.4 mph28.0 kmh 29.25 in990.5 mb 0.00 in0.0 mm 0.00 in0.0 mm 0.24 in6.1 mm
07:00 PM 71.1°F21.7°C 65.3°F18.5°C 82% 5.4 mph SSE8.7 kmh SSE 12.3 mph19.8 kmh 29.25 in990.5 mb 0.00 in0.0 mm 0.00 in0.0 mm 0.24 in6.1 mm
07:05 PM 71.0°F21.7°C 65.2°F18.4°C 82% 6.4 mph SSE10.3 kmh SSE 12.3 mph19.8 kmh 29.24 in990.2 mb 0.00 in0.0 mm 0.00 in0.0 mm 0.24 in6.1 mm
07:10 PM 70.6°F21.4°C 64.8°F18.2°C 82% 8.5 mph SE13.7 kmh SE 17.4 mph28.0 kmh 29.23 in989.8 mb 0.00 in0.0 mm 0.00 in0.0 mm 0.24 in6.1 mm
07:15 PM 70.4°F21.3°C 64.6°F18.1°C 82% 9.0 mph SE14.5 kmh SE 12.3 mph19.8 kmh 29.24 in990.2 mb 0.00 in0.0 mm 0.00 in0.0 mm 0.24 in6.1 mm
07:20 PM 70.1°F21.2°C 64.3°F17.9°C 82% 5.5 mph SSE8.9 kmh SSE 9.8 mph15.8 kmh 29.23 in989.8 mb 0.00 in0.0 mm 0.00 in0.0 mm 0.24 in6.1 mm
07:25 PM 70.0°F21.1°C 64.4°F18.0°C 82% 7.6 mph SE12.2 kmh SE 17.4 mph28.0 kmh 29.23 in989.8 mb 0.00 in0.0 mm 0.00 in0.0 mm 0.24 in6.1 mm
07:30 PM 70.0°F21.1°C 64.8°F18.2°C 84% 7.5 mph S12.1 kmh S 15.0 mph24.1 kmh 29.24 in990.2 mb 0.00 in0.0 mm 0.00 in0.0 mm 0.24 in6.1 mm
07:35 PM 69.8°F21.0°C 65.2°F18.4°C 85% 5.3 mph SSE8.5 kmh SSE 17.4 mph28.0 kmh 29.23 in989.8 mb 0.00 in0.0 mm 0.00 in0.0 mm 0.24 in6.1 mm
07:40 PM 69.7°F20.9°C 65.3°F18.5°C 86% 5.5 mph S8.9 kmh S 9.8 mph15.8 kmh 29.24 in990.2 mb 0.00 in0.0 mm 0.00 in0.0 mm 0.24 in6.1 mm
07:45 PM 69.6°F20.9°C 65.5°F18.6°C 87% 3.7 mph S6.0 kmh S 9.8 mph15.8 kmh 29.24 in990.2 mb 0.00 in0.0 mm 0.00 in0.0 mm 0.24 in6.1 mm
07:50 PM 69.4°F20.8°C 65.7°F18.7°C 88% 3.0 mph SE4.8 kmh SE 4.9 mph7.9 kmh 29.24 in990.2 mb 0.00 in0.0 mm 0.00 in0.0 mm 0.24 in6.1 mm
07:55 PM 69.3°F20.7°C 65.7°F18.7°C 88% 2.2 mph SSE3.5 kmh SSE 4.9 mph7.9 kmh 29.25 in990.5 mb 0.00 in0.0 mm 0.00 in0.0 mm 0.24 in6.1 mm
08:00 PM 69.1°F20.6°C 65.8°F18.8°C 89% 2.4 mph SSE3.9 kmh SSE 4.9 mph7.9 kmh 29.25 in990.5 mb 0.00 in0.0 mm 0.00 in0.0 mm 0.24 in6.1 mm
08:05 PM 68.9°F20.5°C 65.8°F18.8°C 90% 2.4 mph SSE3.9 kmh SSE 7.4 mph11.9 kmh 29.25 in990.5 mb 0.00 in0.0 mm 0.00 in0.0 mm 0.24 in6.1 mm
08:10 PM 68.8°F20.4°C 65.7°F18.7°C 90% 3.6 mph WNW5.8 kmh WNW 12.3 mph19.8 kmh 29.27 in991.2 mb 0.00 in0.0 mm 0.00 in0.0 mm 0.24 in6.1 mm
08:15 PM 68.6°F20.3°C 65.4°F18.6°C 89% 6.7 mph NW10.8 kmh NW 12.3 mph19.8 kmh 29.29 in991.9 mb 0.00 in0.0 mm 0.00 in0.0 mm 0.24 in6.1 mm
08:20 PM 68.5°F20.3°C 64.2°F17.9°C 86% 6.5 mph NW10.5 kmh NW 15.0 mph24.1 kmh 29.29 in991.9 mb 0.00 in0.0 mm 0.00 in0.0 mm 0.24 in6.1 mm
08:25 PM 68.6°F20.3°C 63.9°F17.7°C 85% 3.0 mph NW4.8 kmh NW 7.4 mph11.9 kmh 29.30 in992.2 mb 0.00 in0.0 mm 0.00 in0.0 mm 0.24 in6.1 mm
08:30 PM 68.7°F20.4°C 63.4°F17.4°C 83% 6.0 mph NNW9.7 kmh NNW 12.3 mph19.8 kmh 29.30 in992.2 mb 0.00 in0.0 mm 0.00 in0.0 mm 0.24 in6.1 mm
08:35 PM 68.7°F20.4°C 62.4°F16.9°C 80% 2.4 mph NW3.9 kmh NW 7.4 mph11.9 kmh 29.31 in992.6 mb 0.00 in0.0 mm 0.00 in0.0 mm 0.24 in6.1 mm
08:40 PM 68.7°F20.4°C 62.3°F16.8°C 80% 1.7 mph NW2.7 kmh NW 4.9 mph7.9 kmh 29.31 in992.6 mb 0.00 in0.0 mm 0.00 in0.0 mm 0.24 in6.1 mm
08:45 PM 68.7°F20.4°C 62.3°F16.8°C 80% 0.7 mph NW1.1 kmh NW 4.9 mph7.9 kmh 29.31 in992.6 mb 0.00 in0.0 mm 0.00 in0.0 mm 0.24 in6.1 mm
08:50 PM 68.6°F20.3°C 62.7°F17.1°C 81% 0.4 mph W0.6 kmh W 2.5 mph4.0 kmh 29.31 in992.6 mb 0.00 in0.0 mm 0.00 in0.0 mm 0.24 in6.1 mm
08:55 PM 68.4°F20.2°C 62.8°F17.1°C 82% 0.2 mph NW0.3 kmh NW 2.5 mph4.0 kmh 29.31 in992.6 mb 0.00 in0.0 mm 0.00 in0.0 mm 0.24 in6.1 mm
09:00 PM 67.9°F19.9°C 62.8°F17.1°C 84% 2.3 mph NW3.7 kmh NW 4.9 mph7.9 kmh 29.32 in992.9 mb 0.00 in0.0 mm 0.00 in0.0 mm 0.24 in6.1 mm
09:05 PM 67.5°F19.7°C 62.2°F16.8°C 83% 5.0 mph NW8.0 kmh NW 9.8 mph15.8 kmh 29.32 in992.9 mb 0.00 in0.0 mm 0.00 in0.0 mm 0.24 in6.1 mm
09:10 PM 67.0°F19.4°C 61.6°F16.4°C 83% 3.7 mph NW6.0 kmh NW 12.3 mph19.8 kmh 29.33 in993.2 mb 0.00 in0.0 mm 0.00 in0.0 mm 0.24 in6.1 mm
09:15 PM 66.5°F19.2°C 61.4°F16.3°C 84% 2.4 mph N3.9 kmh N 7.4 mph11.9 kmh 29.34 in993.6 mb 0.00 in0.0 mm 0.00 in0.0 mm 0.24 in6.1 mm
09:20 PM 65.9°F18.8°C 61.0°F16.1°C 84% 3.1 mph WNW5.0 kmh WNW 7.4 mph11.9 kmh 29.34 in993.6 mb 0.00 in0.0 mm 0.00 in0.0 mm 0.24 in6.1 mm
09:25 PM 65.5°F18.6°C 60.7°F15.9°C 85% 3.2 mph NW5.1 kmh NW 7.4 mph11.9 kmh 29.34 in993.6 mb 0.00 in0.0 mm 0.00 in0.0 mm 0.24 in6.1 mm
09:30 PM 64.9°F18.3°C 60.7°F15.9°C 86% 2.8 mph NNW4.5 kmh NNW 7.4 mph11.9 kmh 29.35 in993.9 mb 0.00 in0.0 mm 0.00 in0.0 mm 0.24 in6.1 mm
09:35 PM 64.5°F18.1°C 60.7°F15.9°C 88% 3.2 mph NNW5.1 kmh NNW 7.4 mph11.9 kmh 29.35 in993.9 mb 0.00 in0.0 mm 0.00 in0.0 mm 0.24 in6.1 mm
09:40 PM 64.1°F17.8°C 60.5°F15.8°C 88% 3.0 mph NW4.8 kmh NW 9.8 mph15.8 kmh 29.35 in993.9 mb 0.00 in0.0 mm 0.00 in0.0 mm 0.24 in6.1 mm
09:45 PM 63.9°F17.7°C 60.4°F15.8°C 88% 5.3 mph NW8.5 kmh NW 9.8 mph15.8 kmh 29.36 in994.2 mb 0.00 in0.0 mm 0.00 in0.0 mm 0.24 in6.1 mm
09:50 PM 63.7°F17.6°C 60.4°F15.8°C 89% 3.2 mph WNW5.1 kmh WNW 7.4 mph11.9 kmh 29.36 in994.2 mb 0.00 in0.0 mm 0.00 in0.0 mm 0.24 in6.1 mm
09:55 PM 63.5°F17.5°C 60.2°F15.7°C 89% 4.9 mph NW7.9 kmh NW 9.8 mph15.8 kmh 29.36 in994.2 mb 0.00 in0.0 mm 0.00 in0.0 mm 0.24 in6.1 mm
10:00 PM 63.5°F17.5°C 59.9°F15.5°C 88% 6.6 mph NW10.6 kmh NW 19.9 mph32.0 kmh 29.36 in994.2 mb 0.00 in0.0 mm 0.00 in0.0 mm 0.24 in6.1 mm
10:05 PM 63.5°F17.5°C 59.9°F15.5°C 88% 6.1 mph NW9.8 kmh NW 12.3 mph19.8 kmh 29.37 in994.6 mb 0.00 in0.0 mm 0.00 in0.0 mm 0.24 in6.1 mm
10:10 PM 63.5°F17.5°C 59.9°F15.5°C 88% 6.3 mph NW10.1 kmh NW 12.3 mph19.8 kmh 29.37 in994.6 mb 0.00 in0.0 mm 0.00 in0.0 mm 0.24 in6.1 mm
10:15 PM 63.5°F17.5°C 59.9°F15.5°C 88% 5.2 mph NW8.4 kmh NW 12.3 mph19.8 kmh 29.38 in994.9 mb 0.00 in0.0 mm 0.00 in0.0 mm 0.24 in6.1 mm
10:20 PM 63.5°F17.5°C 60.0°F15.6°C 88% 6.2 mph NW10.0 kmh NW 15.0 mph24.1 kmh 29.38 in994.9 mb 0.00 in0.0 mm 0.00 in0.0 mm 0.24 in6.1 mm
10:25 PM 63.5°F17.5°C 60.2°F15.7°C 89% 5.0 mph NNW8.0 kmh NNW 15.0 mph24.1 kmh 29.38 in994.9 mb 0.00 in0.0 mm 0.00 in0.0 mm 0.24 in6.1 mm
10:30 PM 63.5°F17.5°C 60.2°F15.7°C 89% 6.8 mph NNW10.9 kmh NNW 17.4 mph28.0 kmh 29.39 in995.3 mb 0.00 in0.0 mm 0.00 in0.0 mm 0.24 in6.1 mm
10:35 PM 63.4°F17.4°C 60.1°F15.6°C 89% 6.7 mph W10.8 kmh W 12.3 mph19.8 kmh 29.38 in994.9 mb 0.00 in0.0 mm 0.00 in0.0 mm 0.24 in6.1 mm
10:40 PM 63.3°F17.4°C 60.3°F15.7°C 90% 6.0 mph NW9.7 kmh NW 15.0 mph24.1 kmh 29.39 in995.3 mb 0.00 in0.0 mm 0.00 in0.0 mm 0.24 in6.1 mm
10:45 PM 63.3°F17.4°C 60.3°F15.7°C 90% 8.5 mph NW13.7 kmh NW 17.4 mph28.0 kmh 29.39 in995.3 mb 0.00 in0.0 mm 0.00 in0.0 mm 0.24 in6.1 mm
10:50 PM 63.3°F17.4°C 60.3°F15.7°C 90% 9.3 mph NW15.0 kmh NW 15.0 mph24.1 kmh 29.39 in995.3 mb 0.00 in0.0 mm 0.00 in0.0 mm 0.24 in6.1 mm
10:55 PM 63.1°F17.3°C 60.2°F15.7°C 90% 7.3 mph NW11.7 kmh NW 15.0 mph24.1 kmh 29.39 in995.3 mb 0.00 in0.0 mm 0.00 in0.0 mm 0.24 in6.1 mm
11:00 PM 63.0°F17.2°C 60.2°F15.7°C 91% 7.3 mph NW11.7 kmh NW 17.4 mph28.0 kmh 29.40 in995.6 mb 0.00 in0.0 mm 0.00 in0.0 mm 0.24 in6.1 mm
11:05 PM 62.8°F17.1°C 59.8°F15.4°C 90% 4.9 mph NNW7.9 kmh NNW 9.8 mph15.8 kmh 29.40 in995.6 mb 0.00 in0.0 mm 0.00 in0.0 mm 0.24 in6.1 mm
11:10 PM 62.5°F16.9°C 59.8°F15.4°C 91% 4.7 mph WNW7.6 kmh WNW 9.8 mph15.8 kmh 29.40 in995.6 mb 0.00 in0.0 mm 0.00 in0.0 mm 0.24 in6.1 mm
11:15 PM 62.3°F16.8°C 59.6°F15.3°C 91% 5.1 mph NNW8.2 kmh NNW 9.8 mph15.8 kmh 29.40 in995.6 mb 0.00 in0.0 mm 0.00 in0.0 mm 0.24 in6.1 mm
11:20 PM 62.1°F16.7°C 59.4°F15.2°C 91% 6.1 mph NW9.8 kmh NW 12.3 mph19.8 kmh 29.40 in995.6 mb 0.00 in0.0 mm 0.00 in0.0 mm 0.24 in6.1 mm
11:25 PM 61.7°F16.5°C 59.3°F15.2°C 92% 9.8 mph NNW15.8 kmh NNW 17.4 mph28.0 kmh 29.41 in995.9 mb 0.00 in0.0 mm 0.00 in0.0 mm 0.24 in6.1 mm
11:30 PM 61.3°F16.3°C 59.0°F15.0°C 92% 8.8 mph NNW14.2 kmh NNW 22.4 mph36.0 kmh 29.41 in995.9 mb 0.00 in0.0 mm 0.00 in0.0 mm 0.24 in6.1 mm
11:35 PM 60.9°F16.1°C 58.7°F14.8°C 92% 6.2 mph NW10.0 kmh NW 15.0 mph24.1 kmh 29.41 in995.9 mb 0.00 in0.0 mm 0.00 in0.0 mm 0.24 in6.1 mm
11:40 PM 60.4°F15.8°C 58.4°F14.7°C 93% 4.4 mph W7.1 kmh W 12.3 mph19.8 kmh 29.41 in995.9 mb 0.00 in0.0 mm 0.00 in0.0 mm 0.24 in6.1 mm
11:45 PM 60.0°F15.6°C 58.0°F14.4°C 93% 5.3 mph NW8.5 kmh NW 9.8 mph15.8 kmh 29.42 in996.3 mb 0.00 in0.0 mm 0.00 in0.0 mm 0.24 in6.1 mm
11:50 PM 59.6°F15.3°C 57.6°F14.2°C 93% 6.7 mph WNW10.8 kmh WNW 17.4 mph28.0 kmh 29.42 in996.3 mb 0.00 in0.0 mm 0.00 in0.0 mm 0.24 in6.1 mm
11:55 PM 59.3°F15.2°C 57.5°F14.2°C 94% 6.0 mph NNW9.7 kmh NNW 9.8 mph15.8 kmh 29.42 in996.3 mb 0.00 in0.0 mm 0.00 in0.0 mm 0.24 in6.1 mm